今日のアクセス数

    岡山グライダークラブ活動状況掲示板

岡山グライダークラブ
岡山市浦安南町639-1 岡南飛行場
 使用機:シャイベ式 SF25C型 ファルケ   JA2330
      ヴァレンティン式17E型 タイフーン  JA2342
 練習日:毎日曜日  クラブルーム:電話 086-265-1810
この掲示板は岡山グライダークラブの活動状況をお知らせする掲示板です。
!!!この掲示板は投稿規制をしています。!!!
クラブ関連各種情報は 岡山グライダークラブクラブルーム      を       .
  ブリーフイング情報は  岡山グライダークラブブリーフィングルーム  をご覧下さい。 .
※写真はクリックすると拡大して見ることが出来ます。
岡南飛行場へのアクセス等は 岡南飛行場管理事務所 をご覧ください。
クラブの ホームページ ができました。

ページ 1 (1〜10)ホームページへ戻る

03月03日
by OGC at 2024/3/3(日) 17:09:11 No.20240303170816 コメント】  削除 引用
850 x 638 x 76,773バイト
No.1

03月03日
本日の参加者
  会員      19名
  その他     01名


@本日の様子






METAR
RJBK 030000Z VRB01KT 30KM FEW030CU 02/M04 Q1021 A3015
RJOB 030000Z 25010KT 9999 FEW025 03/M05 Q1019
RJOT 030000Z 25009KT 9999 FEW030 05/M04 Q1020
RJOA 030000Z 29007KT 9999 FEW025 02/M04 Q1019

TAF
RJOB 022305Z 0300/0406 24010KT 9999 FEW025 BKN045
RJOT 022305Z 0300/0406 26015KT 9999 FEW025 BKN045
     TEMPO 0302/0307 26016G26KT
     TEMPO 0400/0403 26016G26KT
RJOA 022305Z 0300/0406 27009KT 9999 FEW020 SCT030


 
本日はやや南西風の強い一日でした。
夕方に一時、降雨もありましたが無事にフライトできました。

解散    17:50

1番機  10:40離陸 撤収機  16:30着陸 

SF25C JA2330 ファルケ     00Flt.0h00min  
SF25C JA225C ファルケ     11Flt.2h35min
17E   JA2342 タイフーン    00Flt.0h00min
合計                    11Flt.2h35min
02月25日
by OGC at 2024/2/25(日) 23:46:40 No.20240225234508 コメント】  削除 引用
1024 x 768 x 61,464バイト
No.1

02月25日
本日の参加者
  会員      15名
  その他     00名


@本日の様子






METAR
RJBK 250000Z 30003KT 10KM -RA FEW003ST SCT010CU BKN040CU 04/03 Q1019 A3011
RJOB 250000Z VRB01KT 3000 -RA BR BCFG FEW000 BKN060 BKN070 03/03 Q1018
RJOT 250000Z 10003KT 7000 -RA FEW001 SCT003 BKN008 04/04 Q1018
RJOA 250000Z VRB02KT 2000 BCFG BR FEW000 SCT003 BKN005 03/02 Q1017
TAF
RJOB  242305Z 2500/2606 03005KT 7000 -SHRA FEW005 SCT015 BKN025
     TEMPO 2500/2503 3000 -SHRA BR BCFG FEW000 SCT005 BKN008
RJOT 242305Z 2500/2606 04004KT 3000 -RA BR FEW001 SCT005 BKN008
     TEMPO 2500/2504 0700 -RA FG FEW000 SCT003 BKN005
     BECMG 2504/2506 9999 NSW FEW020 BKN035
     BECMG 2509/2511 24006KT
RJOA 242305Z 2500/2606 02005KT 9999 FEW015 BKN045
     TEMPO 2500/2502 3000 BR BCFG FEW000 SCT005 BKN008
     BECMG 2506/2508 33012KT


 
本日は雨で14時ごろから雨が止む予報でしたが、低く垂れこめた雲を見ていると
本当に雨が上がるのか心配でしたが、そこは晴れの飛行場、飛行場周りだけ先に
雲が薄くなりました。

解散    17:50

1番機  13:20離陸 撤収機  17:25着陸 

SF25C JA2330 ファルケ     00Flt.0h00min  
SF25C JA225C ファルケ     08Flt.1h40min
17E   JA2342 タイフーン    00Flt.0h00min
合計                    08Flt.1h40min

02月18日
by OGC at 2024/2/18(日) 21:36:11 No.20240218213257 コメント】  削除 引用
1024 x 768 x 75,288バイト
No.1

02月18日
本日の参加者
  会員      14名
  その他     00名


@本日の様子






METAR
RJBK 180000Z VRB01KT 30KM FEW030CU SCT150AC BKN/// 06/02 Q1026 A3032
RJOB 180000Z 10003KT 9999 FEW020 SCT040 07/02 Q1025
RJOT 180000Z 06003KT 020V100 9999 FEW005 09/06 Q1025
RJOA 180000Z 11004KT 9999 FEW025 09/01 Q1025
TAF
RJOB  172305Z 1800/1906 12006KT 9999 FEW020 SCT040
     TEMPO 1821/1903 4000 -RA BR FEW003 BKN008 BKN015
RJOT 172307Z 1800/1906 03006KT 9999 FEW020
RJOA 172307Z 1800/1906 15005KT 9999 FEW025
     TEMPO 1821/1903 4000 RA BR BCFG FEW000 SCT003 BKN005


 
本日は晴れで逆転層に覆われ安定した天候で、風もほぼ正対風で
ソロ日和でした。

解散    17:30

1番機  10:30離陸 撤収機  17:15着陸 

SF25C JA2330 ファルケ     00Flt.0h00min  
SF25C JA225C ファルケ     12Flt.3h30min
17E   JA2342 タイフーン    00Flt.0h00min
合計                    12Flt.3h30min
02月11日
by OGC at 2024/2/12(月) 01:31:11 No.20240212012859 コメント】  削除 引用
1024 x 768 x 61,411バイト
No.1

02月04日
本日の参加者
  会員      14名
  その他     02名


@本日の様子






METAR
RJOB 110000Z 25003KT 9999 FEW020 03/M01 Q1021
RJOT 110000Z 26005KT 9999 FEW030 05/M00 Q1022
RJOA 110000Z 31003KT 9999 FEW025 SCT040 BKN050 02/M02 Q1021
TAF
RJOB  102306Z 1100/1206 23006KT 9999 FEW015 SCT025 BKN035
RJOT 102306Z 1100/1206 20005KT 9999 FEW020 BKN040
     BECMG 1102/1104 27010KT
RJOA 102306Z 1100/1206 28010KT 9999 FEW020 BKN040


 
 本日は曇り一時雨でした。
上空に寒気が入り込んで対気が不安定な状況で、雨が降ったり止んだり
で風も強かったり落ち着いたり、落ち着かない天候でした。

解散    17:30

1番機  11:00離陸 撤収機  16:35着陸 

SF25C JA2330 ファルケ     00Flt.0h00min  
SF25C JA225C ファルケ     08Flt.2h35min
17E   JA2342 タイフーン    00Flt.0h00min
合計                    08Flt.2h35min
02月04日
by OGC at 2024/2/4(日) 19:50:04 No.20240204194754 コメント】  削除 引用
1024 x 768 x 67,238バイト
No.1

02月04日
本日の参加者
  会員      17名
  その他     00名


@本日の様子






METAR
RJBK 040000Z VRB02KT 20KM FEW007ST SCT030CU BKN100AC 04/03 Q1026 A3030
RJOB 040000Z 34004KT 300V030 9999 PRFG FEW000 SCT035 BKN045 03/01 Q1024
RJOT 040000Z 06003KT 010V090 8000 FEW002 SCT008 BKN035 04/04 Q1025
RJOA 040000Z 06006KT 9999 FEW003 BKN020 BKN080 03/02 Q1024
TAF
RJOB  032308Z 0400/0506 03010KT 9999 FEW020 BKN030
     TEMPO 0500/0506 4000 -RA BR FEW003 SCT005 BKN008
RJOT 032305Z 0400/0506 05006KT 9999 FEW020
     TEMPO 0400/0402 FEW003 BKN008 BKN015
     TEMPO 0500/0503 4000 SHRA BR FEW003 BKN008 BKN015
RJOA 032305Z 0400/0506 07007KT 9999 FEW025 BKN040
     TEMPO 0418/0500 4000 -SHRASN BR FEW003 BKN008 BKN015
     TEMPO 0500/0503 2000 SHRASN BR BCFG FEW000 SCT003 BKN008
     TEMPO 0503/0506 4000 -SHRASN BR FEW003 BKN008 BKN015

 
 本日は曇り、もう少し日照時間が多ければ、サーマルが発生したかも?
という感じの天候でした。  

解散    17:30

1番機  10:30離陸 撤収機  17:05着陸 

SF25C JA2330 ファルケ     00Flt.0h00min  
SF25C JA225C ファルケ     12Flt.2h25min
17E   JA2342 タイフーン    00Flt.0h00min
合計                    12Flt.2h25min
01月28日
by OGC at 2024/1/28(日) 22:20:27 No.20240128221849 コメント】  削除 引用
1706 x 960 x 200,956バイト <この画像は大きいので別画面で表示します>
No.1

01月28日
本日の参加者
  会員      14名
  その他     00名


@本日の様子






METAR
RJBK 280000Z VRB01KT 25KM SCT025CU BKN130AC 04/01 Q1023 A3022
RJOB 280000Z VRB02KT 9999 FEW020 BKN130 04/M01 Q1021
RJOT 280000Z 27003KT 220V320 9999 FEW025 SCT130 BKN/// 06/01 Q1022
RJOA 280000Z 28005KT 9999 FEW020 SCT130 BKN/// 01/M02 Q1022
TAF
RJOB  272305Z 2800/2906 03005KT 9999 FEW020 SCT035
     BECMG 2802/2804 32005KT
RJOT 272305Z 2800/2906 28005KT 9999 FEW025 BKN045
     BECMG 2812/2815 15006KT
     BECMG 2821/2900 28007KT
RJOA 272305Z 2800/2906 30006KT 9999 FEW025 BKN040

 
 朝は晴れていましたが、途中一時的に雨が降りました。
 思ったより運航への影響もなく、10フライトできました。
  

解散    17:30

1番機  10:20離陸 撤収機  17:10着陸 

SF25C JA2330 ファルケ     00Flt.0h00min  
SF25C JA225C ファルケ     10Flt.3h20min
17E   JA2342 タイフーン    00Flt.0h00min
合計                    10Flt.3h20min
01月21日
by OGC at 2024/1/21(日) 20:15:30 No.20240121200919 コメント】  削除 引用
640 x 480 x 78,613バイト
No.1

01月21日
本日の参加者
  会員      16名
  その他     00名


@本日の様子






METAR
RJBK 210200Z 28007KT 260V320 30KM FEW020CU SCT030CU BKN120AC 14/10 Q1016 A3001
RJOB 210200Z 34007KT 280V040 9999 FEW008 SCT070 11/07 Q1015
RJOT 210200Z 25007KT 9999 FEW001 SCT015 BKN030 10/10 Q1016
RJOA 210200Z 34013KT 300V010 9999 SCT020 BKN110 11/07 Q1017
TAF
RJOB  202306Z 2100/2206 30005KT 9999 FEW015 BKN030
     BECMG 2100/2102 34011KT
     BECMG 2112/2115 30004KT
     BECMG 2203/2206 27014KT
RJOT 202309Z 2100/2206 30008KT 9999 FEW015 BKN035
     TEMPO 2100/2102 3000 BR BCFG FEW000 SCT003 BKN005
RJOA 202309Z 2100/2206 33009KT 9999 FEW015 BKN035

 
 朝は鈍よりしていましたが、段々と天候は回復してきました。
 本日は年次総会があり、会計報告や提案について審議を行いました。
 その後、JA225Cでまだ飛んでいない訓練生1名の慣熟フライトに続き
 いつも通り、順番にフライトを行いました。
  

解散    17:30

1番機  13:00離陸 撤収機  16:55着陸 

SF25C JA2330 ファルケ     00Flt.0h00min  
SF25C JA225C ファルケ     08Flt.1h35min
17E   JA2342 タイフーン    00Flt.0h00min
合計                    08Flt.1h35min
01月14日
by OGC at 2024/1/14(日) 22:15:27 No.20240114221307 コメント】  削除 引用
640 x 480 x 76,722バイト
No.1

01月14日
本日の参加者
  会員      16名
  その他     00名


@本日の様子






METAR
RJBK 140000Z VRB02KT 30KM SKC 00/M03 Q1026 A3031
RJOB 140000Z 06002KT 9999 FEW025 02/M02 Q1025
RJOT 140000Z 12003KT 060V160 9999 FEW025 02/M03 Q1025
RJOA 140000Z 08004KT 9999 FEW025 01/M05 Q1024
TAF
RJOB  132305Z 1400/1506 06004KT 9999 FEW025
     BECMG 1402/1404 20006KT
     BECMG 1418/1421 35007KT
RJOT 132305Z 1400/1506 03005KT 9999 FEW030
     BECMG 1402/1404 30005KT
     TEMPO 1418/1421 3000 SHRA BR FEW005 BKN008 BKN015
     TEMPO 1421/1500 4000 -SHRA BR FEW005 BKN008 BKN015
RJOA 132305Z 1400/1506 03004KT 9999 FEW025
     BECMG 1402/1404 22005KT
     TEMPO 1415/1418 4000 SHRA BR FEW005 BKN008 BKN015
     BECMG 1418/1421 33010KT
     TEMPO 1418/1421 4000 -SHRA BR FEW005 BKN008 BKN015

 
 本日の天気は昨日とは打って変わって雲一つない快晴でした。
 先週飛んでいないライセンサーと訓練生によるJA225Cの慣熟フライト
 を行いました。
  

解散    17:30

1番機  12:00離陸 撤収機  17:05着陸 

SF25C JA2330 ファルケ     00Flt.0h00min  
SF25C JA225C ファルケ     10Flt.2h10min
17E   JA2342 タイフーン    00Flt.0h00min
合計                    10Flt.2h10min
01月07日
by OGC at 2024/1/8(月) 00:55:41 No.20240108005205 コメント】  削除 引用
1706 x 960 x 175,907バイト <この画像は大きいので別画面で表示します>
No.1

01月07日
本日の参加者
  会員      14名
  その他     00名


@本日の様子






METAR
RJBK 070000Z VRB02KT 25KM FEW030CU 03/M01 Q1018 A3008
RJOB 070000Z 27006KT 240V310 9999 FEW025 05/M03 Q1017
RJOT 070000Z 25007KT 9999 FEW025 06/M01 Q1017
RJOA 070000Z 28005KT 9999 FEW025 SCT040 04/M02 Q1017
TAF
RJOB  062306Z 0700/0806 27015KT 9999 FEW030 BKN045
     TEMPO 0701/0708 27018G28KT
     BECMG 0715/0718 26005KT
RJOT 062306Z 0700/0806 27007KT 9999 FEW020 SCT045
     BECMG 0701/0703 27017KT
     TEMPO 0703/0711 27020G31KT
RJOA 062306Z 0700/0806 28007KT 9999 FEW025 SCT040
     BECMG 0700/0702 28017KT
     TEMPO 0702/0709 28020G30KT
     BECMG 0715/0718 28006KT

 
 明けましておめでとうございます。
 本日の天気は晴ですが風の脈動が激しい一日でした。
 今年の初フライトは、ライセンサーによるJA225Cの慣熟フライトでした。
  

解散    17:30

1番機  12:20離陸 撤収機  17:05着陸 

SF25C JA2330 ファルケ     00Flt.0h00min  
SF25C JA225C ファルケ     08Flt.2h10min
17E   JA2342 タイフーン    00Flt.0h00min
合計                    08Flt.2h10min
12月24日
by OGC at 2023/12/24(日) 18:31:23 No.20231224182659 コメント】  削除 引用
1024 x 768 x 46,766バイト
No.1

12月24日
本日の参加者
  会員      18名
  その他     00名


@本日の様子






METAR
RJBK 240000Z 18003KT 150V230 30KM FEW030CU 02/M01 Q1030 A3046
RJOB 240000Z 23003KT 9999 FEW025 04/M03 Q1029
RJOT 240000Z 16003KT 130V210 9999 FEW025 SCT035 06/00 Q1030
RJOA 240000Z 30004KT 9999 FEW025 03/M02 Q1029
TAF
RJOB  232305Z 2400/2506 23007KT 9999 FEW025
RJOT 232305Z 2400/2506 15005KT 9999 FEW030 BKN045
     BECMG 2400/2402 27008KT
     BECMG 2408/2410 15006KT
     BECMG 2421/2500 28010KT
RJOA 232305Z 2400/2506 25005KT 9999 FEW025 SCT045

 
 本日の天気は快晴。日差しがあるといいですが、雲に隠れると寒い一日でした。
 JA225Cは早々に整備を終わらせ無線検査のため、OKTへ。
 久しぶりのフライトでした。
 

解散    15:30

1番機  14:15離陸 撤収機  14:40着陸 

SF25C JA2330 ファルケ     00Flt.0h00min  
SF25C JA225C ファルケ        01Flt.0h25min
17E   JA2342 タイフーン    00Flt.0h00min
合計                    01Flt.0h25min
ホームページへ 全 47 件 [ 1 2 3 4 5 ]

モータースポーツ | 管理者へメール | お知らせ | 一括削除
携帯から使う方法 | ヘルプ | 利用規約 | 違反報告 | 管理パネル



- 無料レンタル掲示板 -